Aérodrome :
LOGIN :

S'inscrire | Disclaimer

   EN    FR    IT 

 










Légende :    VFR   VFR Marginal   IFR   IFR Intensif   IFR Très Intensif
Visi : 
Plafond : 
>= 8 km
>= 3000ft
5 à 8 km
1000 à 3000 ft
1500m à 5 km
500 à 1000 ft
800 à 1500m
200 à 500 ft
< 800m
< 200 ft
Symboles :   Orages  Brouillard  Fortes neiges  Fortes précipitations  Vent > 20 kt
SIGMETs :   Divers  Orages  Givrage  Turbulence  Onde Orograph.  Cendres Volcan.







- Altitude de l'aérodrome : 1106 ft
- Voir les cartes d'approche


LFSO - Nancy / Ochey

DERNIER METAR :
  • 200830Z AUTO 07005KT 2700 BR BKN004 OVC019 M02/M02 Q1012 TEMPO SCT004 OVC020 BECMG 6000 NSW

METARs EXPIRÉS :
  • 200800Z AUTO 09006KT 2400 BR SCT004 OVC020 M02/M02 Q1011
  • 200730Z AUTO 09005KT 2600 BR BKN004 OVC017 M02/M02 Q1011
  • 200700Z AUTO 11005KT 3600 BR BKN006 OVC018 M02/M02 Q1011
  • 200630Z AUTO 10006KT 4100 BR OVC017 M02/M02 Q1011
  • 200600Z AUTO 10005KT 4400 BR OVC016 M02/M02 Q1010

TAF TAF LFSO
Valide du 20 à 09h jusqu'au 21 à 09h UTC


200800Z 2009/2109 08005KT 4000 BR SCT004 OVC020
BECMG 2010/2012 6000 NSW OVC008
TEMPO 2012/2019 1500 -SN OVC003
FM201900 02005KT 8000 OVC015
BECMG 2102/2104 3000 BR
Pas de NOTAMs connus pour ce terrain.



MET'MAP, la Météo Aéronautique d'un coup d'oeil ! - Copyright ORBIFLY Décembre 2007 - Disclaimer

ORBIFLY MET'MAP TEAM :

Programmation & Développement : Alexandra Zaïnal
Conception & Développement : Baudouin d'Aumeries
Co-Programmation & Développement : Marc-Olivier Méhu
Soutien technique & logistique : Manuel Goepfert

Contact : metmap@orbifly.com




SOURCES & CREDITS :

   NOAA